Waterloo Airport
CYKF : now visible

Airfield :











YOU CAN JOIN US ON...

 
LOGIN :

Register | Disclaimer

   EN    FR    IT 

 









Legend :    VFR   Marginal VFR   IFR   Intensive IFR   Very Intensive IFR
Visi :
Ceiling :
>= 8 km
>= 3000ft
5 to 8 km
1000 to 3000 ft
1500m to 5 km
500 to 1000 ft
800 to 1500m
200 to 500 ft
< 800m
< 200 ft
Symbols :   Thunderstorms  Fog  Heavy snow  Heavy precipitations  Wind > 20 kt






- Airport Elevation : 1054 ft
- IATA code : YKF


CYKF - Waterloo

CURRENT METAR :
  • 141400Z AUTO 17011G16KT 9SM FEW050 SCT100 BKN120 08/06 A2963 RMK SLP040

EXPIRED METARs :
  • 141327Z AUTO 17010KT 9SM OVC100 07/06 A2964 RMK SLP046
  • 141300Z AUTO 15009KT 9SM -RA FEW043 BKN110 07/05 A2967 RMK SLP057
  • 141246Z AUTO 13010G15KT 9SM -RA FEW046 BKN100 BKN120 06/05 A2967 RMK PRESFR SLP054
  • 141209Z AUTO 15011KT 9SM SCT060 SCT075 OVC120 06/05 A2973 RMK PRESFR SLP075
  • 141147Z AUTO 15009KT 6SM -RA BR BKN060 OVC075 06/05 A2978 RMK LTNG DIST S PCPN 3.2MM PAST HR SLP094
  • 141137Z AUTO 12007KT 5SM -RA -UP BR BKN060 OVC075 05/05 A2978 RMK LTNG DIST SE S SW PCPN 2.8MM PAST HR SLP093
  • 141112Z AUTO 00000KT 2SM VCTS -UP BR OVC060 06/05 A2980 RMK LTNG DIST S SW W PCPN 1.2MM PAST HR SLP101
  • 141105Z AUTO 11003KT 020V110 2 1/2SM -RA VCTS -UP OVC060 06/05 A2979 RMK LTNG DIST S SW PCPN 0.5MM PAST HR SLP098
  • 141000Z AUTO 07007KT 9SM -RA BKN066 OVC079 05/05 A2978 RMK SLP092
  • 140930Z AUTO 08006KT 9SM -RA OVC071 05/05 A2982 RMK SLP107

TAF TAF CYKF
Valid from the 14 at 14:00 until the 15 at 02:00 UTC


141340Z 1414/1502 17012KT P6SM BKN100
TEMPO 1414/1418 6SM -SHRA BKN060
BECMG 1415/1417 26013G23KT
FM141800 29010G20KT P6SM BKN050
FM150000 32010KT P6SM SCT050 RMK FCST BASED ON AUTO OBS. NXT FCST BY 142000Z
CZYZ FIR / North America



MET'MAP, your aeronautical weather chart ! - Copyright ORBIFLY December 2007 - Disclaimer

ORBIFLY MET'MAP TEAM :

Programming & Development : Alexandra Zaïnal
Original concept : Baudouin d'Aumeries
Technical & hardware support : Manuel Goepfert
Assistance : Marc-Olivier Méhu




SOURCES & CREDITS :

   NOAA       Earth
Advisory